Time,TemperatureF,DewpointF,PressureIn,WindDirection,WindDirectionDegrees,WindSpeedMPH,WindSpeedGustMPH,Humidity,HourlyPrecipIn,Conditions,Clouds,dailyrainin,SoftwareType,DateUTC
2013-11-12 00:02:00,37.2,31.9,30.23,North,0,0.0,6.4,81,0.00,,,0.02,WUHU216HW,2013-11-12 05:02:00,
2013-11-12 00:07:00,37.2,31.9,30.23,NNE,23,0.0,6.4,81,0.00,,,0.00,WUHU216HW,2013-11-12 05:07:00,
2013-11-12 00:12:00,37.0,31.7,30.23,North,0,6.0,7.3,81,0.00,,,0.00,WUHU216HW,2013-11-12 05:12:00,
2013-11-12 00:17:00,36.6,31.3,30.24,NE,45,3.3,7.3,81,0.00,,,0.00,WUHU216HW,2013-11-12 05:17:00,
2013-11-12 00:22:00,36.6,31.3,30.25,NNW,338,6.7,6.7,81,0.00,,,0.00,WUHU216HW,2013-11-12 05:22:00,
2013-11-12 00:27:00,36.5,31.2,30.24,North,0,0.0,6.7,81,0.00,,,0.00,WUHU216HW,2013-11-12 05:27:00,
2013-11-12 00:32:00,36.3,31.0,30.25,WNW,293,0.0,6.7,81,0.00,,,0.00,WUHU216HW,2013-11-12 05:32:00,
2013-11-12 00:37:00,36.1,31.1,30.25,NE,45,0.0,2.0,82,0.00,,,0.00,WUHU216HW,2013-11-12 05:37:00,
2013-11-12 00:42:00,35.9,30.9,30.25,WNW,293,8.7,9.6,82,0.00,,,0.00,WUHU216HW,2013-11-12 05:42:00,
2013-11-12 00:47:00,35.7,30.7,30.26,NNW,338,8.5,9.6,82,0.00,,,0.00,WUHU216HW,2013-11-12 05:47:00,
2013-11-12 00:52:00,35.6,30.5,30.26,NNE,23,0.0,8.5,82,0.00,,,0.00,WUHU216HW,2013-11-12 05:52:00,
2013-11-12 00:57:00,35.4,30.4,30.26,North,0,6.4,6.4,82,0.02,,,0.00,WUHU216HW,2013-11-12 05:57:00,
2013-11-12 01:02:00,35.4,30.4,30.27,NNW,338,3.1,6.4,82,0.02,,,0.02,WUHU216HW,2013-11-12 06:02:00,
2013-11-12 01:07:00,35.2,30.2,30.27,NNW,338,0.0,6.4,82,0.02,,,0.02,WUHU216HW,2013-11-12 06:07:00,
2013-11-12 01:12:00,35.2,30.2,30.27,NNW,338,3.5,4.2,82,0.02,,,0.02,WUHU216HW,2013-11-12 06:12:00,
2013-11-12 01:17:00,34.8,30.1,30.28,NNE,23,4.4,4.6,83,0.02,,,0.02,WUHU216HW,2013-11-12 06:17:00,
2013-11-12 01:22:00,34.8,30.1,30.27,NNW,338,6.4,6.4,83,0.02,,,0.02,WUHU216HW,2013-11-12 06:22:00,
2013-11-12 01:27:00,34.5,29.8,30.28,North,0,5.5,6.4,83,0.02,,,0.02,WUHU216HW,2013-11-12 06:27:00,
2013-11-12 01:32:00,34.3,29.6,30.28,NE,45,6.4,8.0,83,0.02,,,0.02,WUHU216HW,2013-11-12 06:32:00,
2013-11-12 01:37:00,34.3,29.3,30.28,NNW,338,6.0,8.0,82,0.02,,,0.02,WUHU216HW,2013-11-12 06:37:00,
2013-11-12 01:42:00,34.3,29.3,30.28,NNE,23,9.1,9.1,82,0.02,,,0.02,WUHU216HW,2013-11-12 06:42:00,
2013-11-12 01:47:00,34.3,29.3,30.29,WNW,293,2.6,9.1,82,0.02,,,0.02,WUHU216HW,2013-11-12 06:47:00,
2013-11-12 01:52:00,33.9,29.1,30.28,NNE,23,8.7,9.1,82,0.02,,,0.02,WUHU216HW,2013-11-12 06:52:00,
2013-11-12 01:58:00,33.9,28.9,30.29,NNW,338,2.9,8.7,82,0.00,,,0.02,WUHU216HW,2013-11-12 06:58:00,
2013-11-12 02:03:00,33.9,28.9,30.29,NNE,23,5.1,5.5,82,0.00,,,0.02,WUHU216HW,2013-11-12 07:03:00,
2013-11-12 02:08:00,33.9,28.9,30.29,North,0,2.2,5.1,82,0.00,,,0.02,WUHU216HW,2013-11-12 07:08:00,
2013-11-12 02:13:00,33.8,28.7,30.28,NNW,338,0.0,5.1,82,0.00,,,0.02,WUHU216HW,2013-11-12 07:13:00,
2013-11-12 02:18:00,33.9,28.9,30.29,NNE,23,4.4,4.4,82,0.00,,,0.02,WUHU216HW,2013-11-12 07:18:00,
2013-11-12 02:23:00,33.9,28.9,30.29,North,0,4.0,4.4,82,0.00,,,0.02,WUHU216HW,2013-11-12 07:23:00,
2013-11-12 02:28:00,33.8,28.7,30.29,NNE,23,2.6,5.8,82,0.00,,,0.02,WUHU216HW,2013-11-12 07:28:00,
2013-11-12 02:33:00,33.6,28.6,30.30,NNE,23,4.0,5.8,82,0.00,,,0.02,WUHU216HW,2013-11-12 07:33:00,
2013-11-12 02:38:00,33.8,28.7,30.30,North,0,6.2,6.2,82,0.00,,,0.02,WUHU216HW,2013-11-12 07:38:00,
2013-11-12 02:43:00,33.8,28.7,30.30,NNE,23,2.2,6.2,82,0.00,,,0.02,WUHU216HW,2013-11-12 07:43:00,
2013-11-12 02:48:00,33.6,28.6,30.30,North,0,0.0,2.9,82,0.00,,,0.02,WUHU216HW,2013-11-12 07:48:00,
2013-11-12 02:53:00,33.6,28.6,30.30,NNE,23,1.5,2.9,82,0.00,,,0.02,WUHU216HW,2013-11-12 07:53:00,
2013-11-12 02:58:00,33.6,28.6,30.30,NNE,23,7.6,7.6,82,0.00,,,0.02,WUHU216HW,2013-11-12 07:58:00,
2013-11-12 03:03:00,33.6,28.6,30.30,North,0,3.1,7.6,82,0.00,,,0.02,WUHU216HW,2013-11-12 08:03:00,
2013-11-12 03:08:00,33.6,28.6,30.31,NNE,23,4.0,7.6,82,0.00,,,0.02,WUHU216HW,2013-11-12 08:08:00,
2013-11-12 03:13:00,33.6,28.6,30.31,NNE,23,3.3,6.4,82,0.00,,,0.02,WUHU216HW,2013-11-12 08:13:00,
2013-11-12 03:18:00,33.4,28.1,30.31,NNE,23,6.2,6.4,81,0.00,,,0.02,WUHU216HW,2013-11-12 08:18:00,
2013-11-12 03:23:00,33.4,28.1,30.31,North,0,6.2,6.2,81,0.00,,,0.02,WUHU216HW,2013-11-12 08:23:00,
2013-11-12 03:28:00,33.4,28.1,30.32,North,0,7.1,7.1,81,0.00,,,0.02,WUHU216HW,2013-11-12 08:28:00,
2013-11-12 03:33:00,33.4,28.1,30.32,NNE,23,7.1,7.1,81,0.00,,,0.02,WUHU216HW,2013-11-12 08:33:00,
2013-11-12 03:38:00,33.4,28.1,30.32,NNE,23,2.6,7.1,81,0.00,,,0.02,WUHU216HW,2013-11-12 08:38:00,
2013-11-12 03:43:00,33.4,28.1,30.32,North,0,3.5,4.6,81,0.00,,,0.02,WUHU216HW,2013-11-12 08:43:00,
2013-11-12 03:48:00,33.4,28.1,30.32,North,0,6.0,6.0,81,0.00,,,0.02,WUHU216HW,2013-11-12 08:48:00,
2013-11-12 03:53:00,33.4,28.1,30.32,NNE,23,2.4,6.0,81,0.00,,,0.02,WUHU216HW,2013-11-12 08:53:00,
2013-11-12 03:58:00,33.2,28.0,30.32,North,0,2.6,7.1,81,0.00,,,0.02,WUHU216HW,2013-11-12 08:58:00,
2013-11-12 04:03:00,33.0,27.8,30.33,WNW,293,2.2,7.1,81,0.00,,,0.02,WUHU216HW,2013-11-12 09:03:00,
2013-11-12 04:08:00,33.0,27.5,30.33,NNW,338,5.8,5.8,80,0.00,,,0.02,WUHU216HW,2013-11-12 09:08:00,
2013-11-12 04:13:00,32.7,26.9,30.34,NNE,23,5.1,7.1,79,0.00,,,0.02,WUHU216HW,2013-11-12 09:13:00,
2013-11-12 04:18:00,32.7,26.9,30.34,NE,45,3.3,7.1,79,0.00,,,0.02,WUHU216HW,2013-11-12 09:18:00,
2013-11-12 04:23:00,32.7,26.9,30.34,NNW,338,3.3,5.5,79,0.00,,,0.02,WUHU216HW,2013-11-12 09:23:00,
2013-11-12 04:28:00,32.5,26.7,30.34,North,0,4.0,6.2,79,0.00,,,0.02,WUHU216HW,2013-11-12 09:28:00,
2013-11-12 04:33:00,32.5,26.7,30.34,NNW,338,2.6,6.2,79,0.00,,,0.02,WUHU216HW,2013-11-12 09:33:00,
2013-11-12 04:38:00,32.3,26.6,30.35,NNW,338,0.0,6.2,79,0.00,,,0.02,WUHU216HW,2013-11-12 09:38:00,
2013-11-12 04:43:00,32.1,26.4,30.35,NNE,23,0.0,6.2,79,0.00,,,0.02,WUHU216HW,2013-11-12 09:43:00,
2013-11-12 04:48:00,32.1,26.4,30.35,North,0,4.9,5.3,79,0.00,,,0.02,WUHU216HW,2013-11-12 09:48:00,
2013-11-12 04:53:00,32.1,26.4,30.35,WNW,293,5.3,5.3,79,0.00,,,0.02,WUHU216HW,2013-11-12 09:53:00,
2013-11-12 04:58:00,32.0,25.9,30.36,NW,315,5.8,5.8,78,0.00,,,0.02,WUHU216HW,2013-11-12 09:58:00,
2013-11-12 05:03:00,31.8,25.7,30.36,North,0,6.0,10.9,78,0.00,,,0.02,WUHU216HW,2013-11-12 10:03:00,
2013-11-12 05:08:00,31.8,25.7,30.36,NE,45,5.3,10.9,78,0.00,,,0.02,WUHU216HW,2013-11-12 10:08:00,
2013-11-12 05:13:00,31.6,25.5,30.37,NNW,338,6.7,6.7,78,0.00,,,0.02,WUHU216HW,2013-11-12 10:13:00,
2013-11-12 05:18:00,31.6,25.5,30.37,NNW,338,0.0,6.7,78,0.00,,,0.02,WUHU216HW,2013-11-12 10:18:00,
2013-11-12 05:23:00,31.4,25.4,30.37,NW,315,2.4,6.7,78,0.00,,,0.02,WUHU216HW,2013-11-12 10:23:00,
2013-11-12 05:28:00,31.2,24.9,30.38,WNW,293,0.0,5.8,77,0.00,,,0.02,WUHU216HW,2013-11-12 10:28:00,
2013-11-12 05:33:00,31.2,24.9,30.38,North,0,3.1,5.8,77,0.00,,,0.02,WUHU216HW,2013-11-12 10:33:00,
2013-11-12 05:38:00,31.2,24.9,30.38,North,0,0.0,3.5,77,0.00,,,0.02,WUHU216HW,2013-11-12 10:38:00,
2013-11-12 05:43:00,31.1,24.7,30.39,NNW,338,0.0,3.5,77,0.00,,,0.02,WUHU216HW,2013-11-12 10:43:00,
2013-11-12 05:48:00,30.9,24.5,30.39,NNW,338,3.5,3.5,77,0.00,,,0.02,WUHU216HW,2013-11-12 10:48:00,
2013-11-12 05:53:00,30.9,24.5,30.39,NNE,23,0.0,5.1,77,0.00,,,0.02,WUHU216HW,2013-11-12 10:53:00,
2013-11-12 05:58:00,30.7,24.3,30.40,North,0,0.0,5.1,77,0.00,,,0.02,WUHU216HW,2013-11-12 10:58:00,
2013-11-12 06:03:00,30.7,24.3,30.40,North,0,0.0,4.0,77,0.00,,,0.02,WUHU216HW,2013-11-12 11:03:00,
2013-11-12 06:08:00,30.7,24.3,30.40,North,0,2.4,4.0,77,0.00,,,0.02,WUHU216HW,2013-11-12 11:08:00,
2013-11-12 06:13:00,30.5,24.1,30.40,NNW,338,0.0,2.4,77,0.00,,,0.02,WUHU216HW,2013-11-12 11:13:00,
2013-11-12 06:18:00,30.3,24.0,30.40,NNW,338,2.0,2.0,77,0.00,,,0.02,WUHU216HW,2013-11-12 11:18:00,
2013-11-12 06:23:00,30.3,24.0,30.41,NNW,338,0.0,2.0,77,0.00,,,0.02,WUHU216HW,2013-11-12 11:23:00,
2013-11-12 06:28:00,30.2,23.8,30.41,WNW,293,0.0,4.0,77,0.00,,,0.02,WUHU216HW,2013-11-12 11:28:00,
2013-11-12 06:33:00,30.2,23.8,30.41,WNW,293,0.0,4.0,77,0.00,,,0.02,WUHU216HW,2013-11-12 11:33:00,
2013-11-12 06:38:00,30.0,23.6,30.42,WNW,293,0.0,0.0,77,0.00,,,0.02,WUHU216HW,2013-11-12 11:38:00,
2013-11-12 06:43:00,30.0,23.6,30.42,NW,315,0.2,0.2,77,0.00,,,0.02,WUHU216HW,2013-11-12 11:43:00,
2013-11-12 06:48:00,30.0,23.6,30.42,North,0,0.0,1.7,77,0.00,,,0.02,WUHU216HW,2013-11-12 11:48:00,
2013-11-12 06:53:00,29.8,23.4,30.42,NNW,338,0.0,4.4,77,0.00,,,0.02,WUHU216HW,2013-11-12 11:53:00,
2013-11-12 06:58:00,29.6,22.9,30.43,NW,315,0.0,4.4,76,0.00,,,0.02,WUHU216HW,2013-11-12 11:58:00,
2013-11-12 07:03:00,29.6,23.2,30.43,NNE,23,0.0,4.2,77,0.00,,,0.02,WUHU216HW,2013-11-12 12:03:00,
2013-11-12 07:08:00,29.4,23.1,30.43,NNE,23,0.0,4.2,77,0.00,,,0.02,WUHU216HW,2013-11-12 12:08:00,
2013-11-12 07:13:00,29.4,22.8,30.44,NW,315,0.0,0.0,76,0.00,,,0.02,WUHU216HW,2013-11-12 12:13:00,
2013-11-12 07:18:00,29.4,23.1,30.44,NW,315,2.0,2.0,77,0.00,,,0.02,WUHU216HW,2013-11-12 12:18:00,
2013-11-12 07:23:00,29.3,22.9,30.44,NW,315,5.8,5.8,77,0.00,,,0.02,WUHU216HW,2013-11-12 12:23:00,
2013-11-12 07:28:00,29.1,22.7,30.45,NW,315,0.0,5.8,77,0.00,,,0.02,WUHU216HW,2013-11-12 12:28:00,
2013-11-12 07:33:00,29.1,22.4,30.45,North,0,0.0,2.6,76,0.00,,,0.02,WUHU216HW,2013-11-12 12:33:00,
2013-11-12 07:38:00,29.1,22.7,30.46,North,0,0.0,0.0,77,0.00,,,0.02,WUHU216HW,2013-11-12 12:38:00,
2013-11-12 07:43:00,29.1,22.7,30.46,North,0,0.0,0.0,77,0.00,,,0.02,WUHU216HW,2013-11-12 12:43:00,
2013-11-12 07:48:00,29.1,22.7,30.46,WNW,293,0.0,0.0,77,0.00,,,0.02,WUHU216HW,2013-11-12 12:48:00,
2013-11-12 07:53:00,29.1,22.4,30.46,NW,315,0.0,0.0,76,0.00,,,0.02,WUHU216HW,2013-11-12 12:53:00,
2013-11-12 07:58:00,29.1,22.4,30.47,NW,315,0.0,0.0,76,0.00,,,0.02,WUHU216HW,2013-11-12 12:58:00,
2013-11-12 08:03:00,29.1,22.4,30.47,NW,315,0.0,0.0,76,0.00,,,0.02,WUHU216HW,2013-11-12 13:03:00,
2013-11-12 08:08:00,29.1,22.4,30.47,NW,315,0.0,0.0,76,0.00,,,0.02,WUHU216HW,2013-11-12 13:08:00,
2013-11-12 08:13:00,29.1,22.7,30.48,NW,315,0.0,0.0,77,0.00,,,0.02,WUHU216HW,2013-11-12 13:13:00,
2013-11-12 08:18:00,29.1,22.7,30.48,NW,315,0.0,0.0,77,0.00,,,0.02,WUHU216HW,2013-11-12 13:18:00,
2013-11-12 08:23:00,29.3,22.9,30.48,NW,315,0.0,0.0,77,0.00,,,0.02,WUHU216HW,2013-11-12 13:23:00,
2013-11-12 08:28:00,29.4,23.1,30.48,North,0,0.0,3.8,77,0.00,,,0.02,WUHU216HW,2013-11-12 13:28:00,
2013-11-12 08:33:00,29.4,23.1,30.49,North,0,0.0,4.2,77,0.00,,,0.02,WUHU216HW,2013-11-12 13:33:00,
2013-11-12 08:38:00,29.6,22.9,30.49,NW,315,0.0,6.4,76,0.00,,,0.02,WUHU216HW,2013-11-12 13:38:00,
2013-11-12 08:43:00,29.8,23.1,30.49,NW,315,0.0,6.4,76,0.00,,,0.02,WUHU216HW,2013-11-12 13:43:00,
2013-11-12 08:48:00,29.8,23.4,30.50,NNW,338,0.0,0.0,77,0.00,,,0.02,WUHU216HW,2013-11-12 13:48:00,
2013-11-12 08:53:00,30.0,23.6,30.50,WSW,248,3.3,6.4,77,0.00,,,0.02,WUHU216HW,2013-11-12 13:53:00,
2013-11-12 08:58:00,30.0,23.6,30.50,NNW,338,6.7,10.5,77,0.00,,,0.02,WUHU216HW,2013-11-12 13:58:00,
2013-11-12 09:03:00,30.0,23.6,30.50,WNW,293,0.0,10.5,77,0.00,,,0.02,WUHU216HW,2013-11-12 14:03:00,
2013-11-12 09:08:00,30.3,24.3,30.50,ENE,68,0.0,6.7,78,0.00,,,0.02,WUHU216HW,2013-11-12 14:08:00,
2013-11-12 09:13:00,30.5,24.5,30.50,North,0,6.2,6.2,78,0.00,,,0.02,WUHU216HW,2013-11-12 14:13:00,
2013-11-12 09:18:00,30.5,24.5,30.50,NNE,23,8.7,8.7,78,0.00,,,0.02,WUHU216HW,2013-11-12 14:18:00,
2013-11-12 09:23:00,30.7,24.6,30.50,North,0,2.4,8.7,78,0.00,,,0.02,WUHU216HW,2013-11-12 14:23:00,
2013-11-12 09:28:00,30.9,24.8,30.51,NNW,338,5.8,6.0,78,0.00,,,0.02,WUHU216HW,2013-11-12 14:28:00,
2013-11-12 09:33:00,31.1,24.7,30.51,NW,315,8.5,8.5,77,0.00,,,0.02,WUHU216HW,2013-11-12 14:33:00,
2013-11-12 09:38:00,31.1,24.7,30.51,NNW,338,5.8,8.5,77,0.00,,,0.02,WUHU216HW,2013-11-12 14:38:00,
2013-11-12 09:43:00,31.2,24.9,30.51,NW,315,0.0,5.8,77,0.00,,,0.02,WUHU216HW,2013-11-12 14:43:00,
2013-11-12 09:48:00,31.2,24.9,30.52,NW,315,4.0,5.8,77,0.00,,,0.02,WUHU216HW,2013-11-12 14:48:00,
2013-11-12 09:53:00,31.8,25.4,30.52,North,0,0.0,5.5,77,0.00,,,0.02,WUHU216HW,2013-11-12 14:53:00,
2013-11-12 09:58:00,32.0,25.3,30.51,North,0,6.9,6.9,76,0.00,,,0.02,WUHU216HW,2013-11-12 14:58:00,
2013-11-12 10:03:00,32.1,25.4,30.52,NNW,338,2.4,6.9,76,0.00,,,0.02,WUHU216HW,2013-11-12 15:03:00,
2013-11-12 10:08:00,32.1,25.3,30.52,North,0,8.2,9.6,75,0.00,,,0.02,WUHU216HW,2013-11-12 15:08:00,
2013-11-12 10:13:00,32.3,24.9,30.52,East,90,0.0,9.6,74,0.00,,,0.02,WUHU216HW,2013-11-12 15:13:00,
2013-11-12 10:18:00,32.5,25.1,30.52,NNW,338,4.6,8.2,74,0.00,,,0.02,WUHU216HW,2013-11-12 15:18:00,
2013-11-12 10:23:00,32.7,25.3,30.52,NNW,338,0.0,7.1,74,0.00,,,0.02,WUHU216HW,2013-11-12 15:23:00,
2013-11-12 10:28:00,33.0,25.3,30.52,NNE,23,4.0,7.1,73,0.00,,,0.02,WUHU216HW,2013-11-12 15:28:00,
2013-11-12 10:33:00,33.0,25.3,30.52,NW,315,6.9,10.7,73,0.00,,,0.02,WUHU216HW,2013-11-12 15:33:00,
2013-11-12 10:38:00,33.0,24.9,30.52,North,0,4.6,10.7,72,0.00,,,0.02,WUHU216HW,2013-11-12 15:38:00,
2013-11-12 10:43:00,33.0,24.9,30.52,NW,315,4.0,14.7,72,0.00,,,0.02,WUHU216HW,2013-11-12 15:43:00,
2013-11-12 10:48:00,33.4,25.6,30.52,NW,315,8.5,14.7,73,0.00,,,0.02,WUHU216HW,2013-11-12 15:48:00,
2013-11-12 10:53:00,33.6,25.1,30.52,NNE,23,6.7,10.2,71,0.00,,,0.02,WUHU216HW,2013-11-12 15:53:00,
2013-11-12 10:58:00,33.9,25.4,30.52,NNW,338,6.2,10.2,71,0.00,,,0.02,WUHU216HW,2013-11-12 15:58:00,
2013-11-12 11:03:00,33.9,25.1,30.52,WNW,293,5.3,6.7,70,0.00,,,0.02,WUHU216HW,2013-11-12 16:03:00,
2013-11-12 11:08:00,33.9,25.1,30.51,NE,45,6.7,7.3,70,0.00,,,0.02,WUHU216HW,2013-11-12 16:08:00,
2013-11-12 11:13:00,34.5,25.7,30.51,NW,315,8.7,8.7,70,0.00,,,0.02,WUHU216HW,2013-11-12 16:13:00,
2013-11-12 11:18:00,34.7,25.5,30.51,NNE,23,3.1,8.7,69,0.00,,,0.02,WUHU216HW,2013-11-12 16:18:00,
2013-11-12 11:23:00,34.8,25.7,30.51,NNE,23,4.6,9.3,69,0.00,,,0.02,WUHU216HW,2013-11-12 16:23:00,
2013-11-12 11:28:00,35.2,26.0,30.52,NNW,338,6.4,9.3,69,0.00,,,0.02,WUHU216HW,2013-11-12 16:28:00,
2013-11-12 11:33:00,35.2,26.0,30.51,NNE,23,4.6,6.4,69,0.00,,,0.02,WUHU216HW,2013-11-12 16:33:00,
2013-11-12 11:38:00,35.7,26.2,30.52,North,0,12.7,13.6,68,0.00,,,0.02,WUHU216HW,2013-11-12 16:38:00,
2013-11-12 11:43:00,35.4,25.5,30.52,West,270,6.4,17.0,67,0.00,,,0.02,WUHU216HW,2013-11-12 16:43:00,
2013-11-12 11:48:00,35.2,25.3,30.51,NNW,338,11.4,17.0,67,0.00,,,0.02,WUHU216HW,2013-11-12 16:48:00,
2013-11-12 11:53:00,35.4,25.5,30.52,NNW,338,4.2,15.8,67,0.00,,,0.02,WUHU216HW,2013-11-12 16:53:00,
2013-11-12 11:58:00,35.4,25.1,30.51,NW,315,0.0,15.8,66,0.00,,,0.02,WUHU216HW,2013-11-12 16:58:00,
2013-11-12 12:03:00,35.4,25.5,30.52,NNW,338,5.5,8.9,67,0.00,,,0.02,WUHU216HW,2013-11-12 17:03:00,
2013-11-12 12:08:00,35.7,25.5,30.51,NNE,23,8.7,8.9,66,0.00,,,0.02,WUHU216HW,2013-11-12 17:08:00,
2013-11-12 12:13:00,35.7,25.1,30.52,NNE,23,0.0,9.6,65,0.00,,,0.02,WUHU216HW,2013-11-12 17:13:00,
2013-11-12 12:18:00,35.7,25.1,30.51,WSW,248,3.8,9.6,65,0.00,,,0.02,WUHU216HW,2013-11-12 17:18:00,
2013-11-12 12:23:00,35.9,25.3,30.51,North,0,5.5,5.5,65,0.00,,,0.02,WUHU216HW,2013-11-12 17:23:00,
2013-11-12 12:28:00,36.3,25.6,30.51,West,270,14.9,14.9,65,0.00,,,0.02,WUHU216HW,2013-11-12 17:28:00,
2013-11-12 12:33:00,36.5,25.8,30.51,NNW,338,12.3,14.9,65,0.00,,,0.02,WUHU216HW,2013-11-12 17:33:00,
2013-11-12 12:38:00,36.6,26.0,30.51,NNE,23,7.3,12.3,65,0.00,,,0.02,WUHU216HW,2013-11-12 17:38:00,
2013-11-12 12:43:00,37.2,26.1,30.50,WNW,293,7.8,12.9,64,0.00,,,0.02,WUHU216HW,2013-11-12 17:43:00,
2013-11-12 12:48:00,37.5,26.0,30.51,NNE,23,10.5,12.9,63,0.00,,,0.02,WUHU216HW,2013-11-12 17:48:00,
2013-11-12 12:53:00,37.2,25.7,30.51,North,0,5.8,10.5,63,0.00,,,0.02,WUHU216HW,2013-11-12 17:53:00,
2013-11-12 12:58:00,37.2,25.7,30.50,NNE,23,2.4,10.5,63,0.00,,,0.02,WUHU216HW,2013-11-12 17:58:00,
2013-11-12 13:03:00,37.9,26.4,30.50,WNW,293,3.5,6.2,63,0.00,,,0.02,WUHU216HW,2013-11-12 18:03:00,
2013-11-12 13:08:00,37.9,26.0,30.50,NNW,338,6.0,6.2,62,0.00,,,0.02,WUHU216HW,2013-11-12 18:08:00,
2013-11-12 13:13:00,37.9,26.0,30.50,NW,315,6.0,10.0,62,0.00,,,0.02,WUHU216HW,2013-11-12 18:13:00,
2013-11-12 13:18:00,37.9,26.0,30.50,NW,315,11.1,11.1,62,0.00,,,0.02,WUHU216HW,2013-11-12 18:18:00,
2013-11-12 13:23:00,38.1,26.2,30.50,WSW,248,0.0,11.1,62,0.00,,,0.02,WUHU216HW,2013-11-12 18:23:00,
2013-11-12 13:28:00,38.3,25.9,30.50,West,270,6.0,11.1,61,0.00,,,0.02,WUHU216HW,2013-11-12 18:28:00,
2013-11-12 13:33:00,38.3,25.6,30.50,SSW,203,0.0,6.4,60,0.00,,,0.02,WUHU216HW,2013-11-12 18:33:00,
2013-11-12 13:38:00,38.4,26.1,30.50,NNE,23,4.4,6.4,61,0.00,,,0.02,WUHU216HW,2013-11-12 18:38:00,
2013-11-12 13:43:00,38.8,26.0,30.50,NW,315,6.7,6.7,60,0.00,,,0.02,WUHU216HW,2013-11-12 18:43:00,
2013-11-12 13:48:00,38.8,25.6,30.50,NNW,338,12.9,12.9,59,0.00,,,0.02,WUHU216HW,2013-11-12 18:48:00,
2013-11-12 13:53:00,38.8,25.6,30.50,NW,315,8.9,12.9,59,0.00,,,0.02,WUHU216HW,2013-11-12 18:53:00,
2013-11-12 13:58:00,38.6,25.0,30.50,North,0,4.2,12.9,58,0.00,,,0.02,WUHU216HW,2013-11-12 18:58:00,
2013-11-12 14:03:00,39.0,25.3,30.50,NNW,338,9.1,11.1,58,0.00,,,0.02,WUHU216HW,2013-11-12 19:03:00,
2013-11-12 14:09:00,38.8,25.2,30.50,North,0,14.3,14.3,58,0.00,,,0.02,WUHU216HW,2013-11-12 19:09:00,
2013-11-12 14:14:00,38.8,25.2,30.50,North,0,3.8,14.3,58,0.00,,,0.02,WUHU216HW,2013-11-12 19:14:00,
2013-11-12 14:19:00,38.8,25.2,30.50,NNW,338,11.4,15.6,58,0.00,,,0.02,WUHU216HW,2013-11-12 19:19:00,
2013-11-12 14:24:00,39.0,25.3,30.50,NW,315,19.2,19.2,58,0.00,,,0.02,WUHU216HW,2013-11-12 19:24:00,
2013-11-12 14:29:00,38.8,24.8,30.50,NNW,338,9.8,19.2,57,0.00,,,0.02,WUHU216HW,2013-11-12 19:29:00,
2013-11-12 14:34:00,38.4,24.4,30.50,NNW,338,11.6,19.2,57,0.00,,,0.02,WUHU216HW,2013-11-12 19:34:00,
2013-11-12 14:39:00,38.4,24.4,30.50,WNW,293,9.8,19.2,57,0.00,,,0.02,WUHU216HW,2013-11-12 19:39:00,
2013-11-12 14:44:00,38.4,24.4,30.50,North,0,11.1,11.6,57,0.00,,,0.02,WUHU216HW,2013-11-12 19:44:00,
2013-11-12 14:49:00,38.3,24.3,30.50,NNW,338,13.8,13.8,57,0.00,,,0.02,WUHU216HW,2013-11-12 19:49:00,
2013-11-12 14:54:00,38.4,24.4,30.50,North,0,6.2,13.8,57,0.00,,,0.02,WUHU216HW,2013-11-12 19:54:00,
2013-11-12 14:59:00,38.3,24.3,30.50,SW,225,0.0,13.8,57,0.00,,,0.02,WUHU216HW,2013-11-12 19:59:00,
2013-11-12 15:04:00,38.1,23.7,30.51,North,0,8.7,8.7,56,0.00,,,0.02,WUHU216HW,2013-11-12 20:04:00,
2013-11-12 15:09:00,38.1,23.7,30.51,North,0,9.8,9.8,56,0.00,,,0.02,WUHU216HW,2013-11-12 20:09:00,
2013-11-12 15:14:00,38.1,23.7,30.51,North,0,0.0,9.8,56,0.00,,,0.02,WUHU216HW,2013-11-12 20:14:00,
2013-11-12 15:19:00,38.1,23.7,30.51,WNW,293,6.9,6.9,56,0.00,,,0.02,WUHU216HW,2013-11-12 20:19:00,
2013-11-12 15:24:00,38.1,23.7,30.51,NNW,338,5.3,6.9,56,0.00,,,0.02,WUHU216HW,2013-11-12 20:24:00,
2013-11-12 15:29:00,37.9,23.5,30.51,NNW,338,0.0,6.9,56,0.00,,,0.02,WUHU216HW,2013-11-12 20:29:00,
2013-11-12 15:34:00,38.1,23.7,30.51,NW,315,4.6,6.9,56,0.00,,,0.02,WUHU216HW,2013-11-12 20:34:00,
2013-11-12 15:39:00,38.1,23.7,30.51,NNW,338,8.2,10.0,56,0.00,,,0.02,WUHU216HW,2013-11-12 20:39:00,
2013-11-12 15:44:00,38.1,23.7,30.52,WNW,293,12.0,12.0,56,0.00,,,0.02,WUHU216HW,2013-11-12 20:44:00,
2013-11-12 15:49:00,38.1,23.2,30.52,NNW,338,4.6,12.0,55,0.00,,,0.02,WUHU216HW,2013-11-12 20:49:00,
2013-11-12 15:54:00,38.1,23.2,30.52,WNW,293,4.6,12.0,55,0.00,,,0.02,WUHU216HW,2013-11-12 20:54:00,
2013-11-12 15:59:00,38.3,23.4,30.52,NW,315,0.0,4.9,55,0.00,,,0.02,WUHU216HW,2013-11-12 20:59:00,
2013-11-12 16:04:00,38.4,23.6,30.52,ENE,68,0.0,14.0,55,0.00,,,0.02,WUHU216HW,2013-11-12 21:04:00,
2013-11-12 16:09:00,38.4,23.6,30.52,NW,315,12.7,16.3,55,0.00,,,0.02,WUHU216HW,2013-11-12 21:09:00,
2013-11-12 16:14:00,38.4,23.6,30.52,NW,315,5.5,16.3,55,0.00,,,0.02,WUHU216HW,2013-11-12 21:14:00,
2013-11-12 16:19:00,38.4,23.6,30.52,West,270,3.8,7.1,55,0.00,,,0.02,WUHU216HW,2013-11-12 21:19:00,
2013-11-12 16:24:00,38.4,23.6,30.52,WSW,248,0.0,7.8,55,0.00,,,0.02,WUHU216HW,2013-11-12 21:24:00,
2013-11-12 16:29:00,38.4,23.6,30.52,NE,45,10.2,10.2,55,0.00,,,0.02,WUHU216HW,2013-11-12 21:29:00,
2013-11-12 16:34:00,38.3,23.4,30.52,WNW,293,9.3,10.2,55,0.00,,,0.02,WUHU216HW,2013-11-12 21:34:00,
2013-11-12 16:39:00,38.1,23.2,30.52,NNE,23,5.8,10.2,55,0.00,,,0.02,WUHU216HW,2013-11-12 21:39:00,
2013-11-12 16:44:00,38.1,23.2,30.52,WNW,293,9.6,12.0,55,0.00,,,0.02,WUHU216HW,2013-11-12 21:44:00,
2013-11-12 16:49:00,37.9,23.1,30.52,NW,315,8.5,12.0,55,0.00,,,0.02,WUHU216HW,2013-11-12 21:49:00,
2013-11-12 16:54:00,37.9,23.1,30.52,NW,315,5.1,9.6,55,0.00,,,0.02,WUHU216HW,2013-11-12 21:54:00,
2013-11-12 16:59:00,37.4,22.6,30.52,North,0,8.0,8.5,55,0.00,,,0.02,WUHU216HW,2013-11-12 21:59:00,
2013-11-12 17:04:00,37.2,22.4,30.53,NNW,338,0.0,8.0,55,0.00,,,0.02,WUHU216HW,2013-11-12 22:04:00,
2013-11-12 17:09:00,37.0,22.3,30.53,NNE,23,0.0,8.0,55,0.00,,,0.02,WUHU216HW,2013-11-12 22:09:00,
2013-11-12 17:14:00,36.6,21.9,30.53,NNW,338,6.2,6.2,55,0.00,,,0.02,WUHU216HW,2013-11-12 22:14:00,
2013-11-12 17:19:00,36.5,21.8,30.53,NNW,338,5.5,6.2,55,0.00,,,0.02,WUHU216HW,2013-11-12 22:19:00,
2013-11-12 17:24:00,36.3,21.6,30.53,NW,315,9.1,9.1,55,0.00,,,0.02,WUHU216HW,2013-11-12 22:24:00,
2013-11-12 17:29:00,36.3,22.1,30.53,NE,45,5.8,9.1,56,0.00,,,0.02,WUHU216HW,2013-11-12 22:29:00,
2013-11-12 17:34:00,36.1,21.9,30.53,NNE,23,0.0,5.8,56,0.00,,,0.02,WUHU216HW,2013-11-12 22:34:00,
2013-11-12 17:39:00,35.7,21.6,30.53,North,0,5.3,5.8,56,0.00,,,0.02,WUHU216HW,2013-11-12 22:39:00,
2013-11-12 17:44:00,35.7,22.0,30.53,West,270,6.2,6.2,57,0.00,,,0.02,WUHU216HW,2013-11-12 22:44:00,
2013-11-12 17:49:00,35.4,21.7,30.53,NNW,338,0.0,6.4,57,0.00,,,0.02,WUHU216HW,2013-11-12 22:49:00,
2013-11-12 17:54:00,35.4,21.7,30.53,NW,315,0.0,6.4,57,0.00,,,0.02,WUHU216HW,2013-11-12 22:54:00,
2013-11-12 17:59:00,35.2,21.9,30.53,NNW,338,6.0,6.0,58,0.00,,,0.02,WUHU216HW,2013-11-12 22:59:00,
2013-11-12 18:04:00,35.0,21.7,30.53,North,0,0.0,6.0,58,0.00,,,0.02,WUHU216HW,2013-11-12 23:04:00,
2013-11-12 18:09:00,34.8,21.5,30.53,North,0,0.0,6.0,58,0.00,,,0.02,WUHU216HW,2013-11-12 23:09:00,
2013-11-12 18:14:00,34.8,22.0,30.53,NW,315,0.0,5.8,59,0.00,,,0.02,WUHU216HW,2013-11-12 23:14:00,
2013-11-12 18:19:00,34.8,22.0,30.53,NNE,23,0.0,0.0,59,0.00,,,0.02,WUHU216HW,2013-11-12 23:19:00,
2013-11-12 18:24:00,34.5,21.6,30.53,NNE,23,0.0,0.0,59,0.00,,,0.02,WUHU216HW,2013-11-12 23:24:00,
2013-11-12 18:29:00,34.3,21.9,30.53,NNW,338,0.0,0.0,60,0.00,,,0.02,WUHU216HW,2013-11-12 23:29:00,
2013-11-12 18:34:00,34.3,21.9,30.53,NNW,338,0.0,0.0,60,0.00,,,0.02,WUHU216HW,2013-11-12 23:34:00,
2013-11-12 18:39:00,34.3,21.9,30.52,NNW,338,0.0,0.0,60,0.00,,,0.02,WUHU216HW,2013-11-12 23:39:00,
2013-11-12 18:44:00,34.3,21.9,30.53,NNW,338,0.0,0.0,60,0.00,,,0.02,WUHU216HW,2013-11-12 23:44:00,
2013-11-12 18:49:00,34.3,21.9,30.53,NNW,338,0.0,0.0,60,0.00,,,0.02,WUHU216HW,2013-11-12 23:49:00,
2013-11-12 18:54:00,34.1,21.7,30.53,NNW,338,0.0,0.0,60,0.00,,,0.02,WUHU216HW,2013-11-12 23:54:00,
2013-11-12 18:59:00,33.9,21.9,30.53,NNW,338,0.0,0.0,61,0.00,,,0.02,WUHU216HW,2013-11-12 23:59:00,
2013-11-12 19:04:00,33.9,21.9,30.53,NNW,338,0.0,0.0,61,0.00,,,0.02,WUHU216HW,2013-11-13 00:04:00,
2013-11-12 19:09:00,33.8,21.7,30.53,NNW,338,0.0,0.0,61,0.00,,,0.02,WUHU216HW,2013-11-13 00:09:00,
2013-11-12 19:14:00,33.6,21.9,30.53,NNW,338,0.0,0.0,62,0.00,,,0.02,WUHU216HW,2013-11-13 00:14:00,
2013-11-12 19:19:00,33.4,21.7,30.53,NNW,338,0.0,0.0,62,0.00,,,0.02,WUHU216HW,2013-11-13 00:19:00,
2013-11-12 19:24:00,33.2,21.6,30.53,NNW,338,0.0,0.0,62,0.00,,,0.02,WUHU216HW,2013-11-13 00:24:00,
2013-11-12 19:29:00,33.0,21.8,30.53,NNW,338,0.0,0.0,63,0.00,,,0.02,WUHU216HW,2013-11-13 00:29:00,
2013-11-12 19:34:00,32.9,21.6,30.53,NNW,338,0.0,0.0,63,0.00,,,0.02,WUHU216HW,2013-11-13 00:34:00,
2013-11-12 19:39:00,32.7,21.4,30.53,NNW,338,0.0,0.0,63,0.00,,,0.02,WUHU216HW,2013-11-13 00:39:00,
2013-11-12 19:44:00,32.5,21.6,30.53,NNW,338,0.0,0.0,64,0.00,,,0.02,WUHU216HW,2013-11-13 00:44:00,
2013-11-12 19:49:00,32.3,21.5,30.53,NNW,338,0.0,0.0,64,0.00,,,0.02,WUHU216HW,2013-11-13 00:49:00,
2013-11-12 19:54:00,32.1,21.7,30.53,NNW,338,0.0,0.0,65,0.00,,,0.02,WUHU216HW,2013-11-13 00:54:00,
2013-11-12 19:59:00,31.8,21.3,30.54,NNW,338,0.0,0.0,65,0.00,,,0.02,WUHU216HW,2013-11-13 00:59:00,
2013-11-12 20:04:00,31.8,21.3,30.53,NNW,338,0.0,0.0,65,0.00,,,0.02,WUHU216HW,2013-11-13 01:04:00,
2013-11-12 20:09:00,31.6,21.5,30.53,NNW,338,0.0,0.0,66,0.00,,,0.02,WUHU216HW,2013-11-13 01:09:00,
2013-11-12 20:14:00,31.2,21.2,30.54,NNW,338,0.0,0.0,66,0.00,,,0.02,WUHU216HW,2013-11-13 01:14:00,
2013-11-12 20:19:00,31.2,21.5,30.54,NNW,338,0.0,0.0,67,0.00,,,0.02,WUHU216HW,2013-11-13 01:19:00,
2013-11-12 20:24:00,30.9,21.2,30.54,NNW,338,0.0,0.0,67,0.00,,,0.02,WUHU216HW,2013-11-13 01:24:00,
2013-11-12 20:29:00,30.7,21.0,30.54,NNW,338,0.0,0.0,67,0.00,,,0.02,WUHU216HW,2013-11-13 01:29:00,
2013-11-12 20:34:00,30.7,21.0,30.54,NNW,338,0.0,0.0,67,0.00,,,0.02,WUHU216HW,2013-11-13 01:34:00,
2013-11-12 20:39:00,30.5,20.8,30.54,NNW,338,0.0,0.0,67,0.00,,,0.02,WUHU216HW,2013-11-13 01:39:00,
2013-11-12 20:44:00,30.5,21.2,30.54,NNW,338,0.0,0.0,68,0.00,,,0.02,WUHU216HW,2013-11-13 01:44:00,
2013-11-12 20:49:00,30.3,21.0,30.55,NNW,338,0.0,0.0,68,0.00,,,0.02,WUHU216HW,2013-11-13 01:49:00,
2013-11-12 20:54:00,30.2,20.8,30.55,NNW,338,0.0,0.0,68,0.00,,,0.02,WUHU216HW,2013-11-13 01:54:00,
2013-11-12 20:59:00,30.0,21.0,30.55,NNW,338,0.0,0.0,69,0.00,,,0.02,WUHU216HW,2013-11-13 01:59:00,
2013-11-12 21:04:00,30.0,21.0,30.55,NNW,338,0.0,0.0,69,0.00,,,0.02,WUHU216HW,2013-11-13 02:04:00,
2013-11-12 21:09:00,29.8,20.8,30.55,NNW,338,0.0,0.0,69,0.00,,,0.02,WUHU216HW,2013-11-13 02:09:00,
2013-11-12 21:14:00,29.8,20.8,30.54,NNW,338,0.0,0.0,69,0.00,,,0.02,WUHU216HW,2013-11-13 02:14:00,
2013-11-12 21:19:00,29.6,20.7,30.54,NNW,338,0.0,0.0,69,0.00,,,0.02,WUHU216HW,2013-11-13 02:19:00,
2013-11-12 21:24:00,29.4,20.9,30.55,NNW,338,0.0,0.0,70,0.00,,,0.02,WUHU216HW,2013-11-13 02:24:00,
2013-11-12 21:29:00,29.1,20.5,30.55,NNW,338,0.0,0.0,70,0.00,,,0.02,WUHU216HW,2013-11-13 02:29:00,
2013-11-12 21:34:00,29.1,20.5,30.55,NNW,338,0.0,0.0,70,0.00,,,0.02,WUHU216HW,2013-11-13 02:34:00,
2013-11-12 21:39:00,29.1,20.8,30.55,NNW,338,0.0,0.0,71,0.00,,,0.02,WUHU216HW,2013-11-13 02:39:00,
2013-11-12 21:45:00,28.9,20.7,30.55,NNW,338,0.0,0.0,71,0.00,,,0.02,WUHU216HW,2013-11-13 02:45:00,
2013-11-12 21:50:00,28.9,20.7,30.55,NNW,338,0.0,0.0,71,0.00,,,0.02,WUHU216HW,2013-11-13 02:50:00,
2013-11-12 21:55:00,28.9,20.7,30.56,NNW,338,0.0,0.0,71,0.00,,,0.02,WUHU216HW,2013-11-13 02:55:00,
2013-11-12 22:00:00,28.7,20.8,30.56,NNW,338,0.0,0.0,72,0.00,,,0.02,WUHU216HW,2013-11-13 03:00:00,
2013-11-12 22:05:00,28.5,20.7,30.55,NNW,338,0.0,0.0,72,0.00,,,0.02,WUHU216HW,2013-11-13 03:05:00,
2013-11-12 22:10:00,28.5,20.7,30.56,NNW,338,0.0,0.0,72,0.00,,,0.02,WUHU216HW,2013-11-13 03:10:00,
2013-11-12 22:15:00,28.5,20.7,30.56,NNW,338,0.0,0.0,72,0.00,,,0.02,WUHU216HW,2013-11-13 03:15:00,
2013-11-12 22:20:00,28.5,20.7,30.56,NNW,338,0.0,0.0,72,0.00,,,0.02,WUHU216HW,2013-11-13 03:20:00,
2013-11-12 22:25:00,28.2,20.6,30.56,NW,315,0.0,0.0,73,0.00,,,0.02,WUHU216HW,2013-11-13 03:25:00,
2013-11-12 22:30:00,28.2,20.6,30.56,NW,315,0.0,0.0,73,0.00,,,0.02,WUHU216HW,2013-11-13 03:30:00,
2013-11-12 22:35:00,28.2,20.6,30.55,NW,315,0.0,0.0,73,0.00,,,0.02,WUHU216HW,2013-11-13 03:35:00,
2013-11-12 22:40:00,28.0,20.4,30.56,NW,315,0.0,0.0,73,0.00,,,0.02,WUHU216HW,2013-11-13 03:40:00,
2013-11-12 22:45:00,28.0,20.4,30.56,NW,315,0.0,0.0,73,0.00,,,0.02,WUHU216HW,2013-11-13 03:45:00,
2013-11-12 22:50:00,28.0,20.4,30.56,NW,315,0.0,0.0,73,0.00,,,0.02,WUHU216HW,2013-11-13 03:50:00,
2013-11-12 22:55:00,28.0,20.4,30.56,NW,315,0.0,0.0,73,0.00,,,0.02,WUHU216HW,2013-11-13 03:55:00,
2013-11-12 23:00:00,27.6,20.4,30.56,NW,315,0.0,0.0,74,0.00,,,0.02,WUHU216HW,2013-11-13 04:00:00,
2013-11-12 23:05:00,27.6,20.4,30.56,NW,315,0.0,0.0,74,0.00,,,0.02,WUHU216HW,2013-11-13 04:05:00,
2013-11-12 23:10:00,27.6,20.4,30.56,NW,315,0.0,0.0,74,0.00,,,0.02,WUHU216HW,2013-11-13 04:10:00,
2013-11-12 23:15:00,27.6,20.4,30.56,NW,315,0.0,0.0,74,0.00,,,0.02,WUHU216HW,2013-11-13 04:15:00,
2013-11-12 23:20:00,27.6,20.4,30.56,NW,315,0.0,0.0,74,0.00,,,0.02,WUHU216HW,2013-11-13 04:20:00,
2013-11-12 23:25:00,27.6,20.4,30.55,NW,315,0.0,0.0,74,0.00,,,0.02,WUHU216HW,2013-11-13 04:25:00,
2013-11-12 23:30:00,27.6,20.4,30.56,NW,315,0.0,0.0,74,0.00,,,0.02,WUHU216HW,2013-11-13 04:30:00,
2013-11-12 23:35:00,27.6,20.4,30.55,NW,315,0.0,0.0,74,0.00,,,0.02,WUHU216HW,2013-11-13 04:35:00,
2013-11-12 23:40:00,27.5,20.2,30.55,NW,315,0.0,0.0,74,0.00,,,0.02,WUHU216HW,2013-11-13 04:40:00,
2013-11-12 23:45:00,27.3,20.0,30.55,NW,315,0.0,0.0,74,0.00,,,0.02,WUHU216HW,2013-11-13 04:45:00,
2013-11-12 23:50:00,27.3,20.0,30.55,NW,315,0.0,0.0,74,0.00,,,0.02,WUHU216HW,2013-11-13 04:50:00,
2013-11-12 23:55:00,27.1,20.2,30.55,NW,315,0.0,0.0,75,0.00,,,0.02,WUHU216HW,2013-11-13 04:55:00,